createdAt,value
2023-03-22T00:00:54.495Z,97589.22
2023-03-22T00:05:59.179Z,97573.63
2023-03-22T00:11:01.246Z,97592.97
2023-03-22T00:16:04.232Z,97586.81
2023-03-22T00:21:06.360Z,97586.81
2023-03-22T00:26:09.725Z,97578.97
2023-03-22T00:31:12.309Z,97582.66
2023-03-22T00:36:13.808Z,97553.44
2023-03-22T00:41:18.778Z,97553.84
2023-03-22T00:46:21.556Z,97548.44
2023-03-22T00:51:23.075Z,97543.03
2023-03-22T00:56:28.655Z,97541.34
2023-03-22T01:01:35.734Z,97549.00
2023-03-22T01:06:37.346Z,97549.66
2023-03-22T01:11:39.180Z,97540.34
2023-03-22T01:16:40.852Z,97537.47
2023-03-22T01:21:42.585Z,97550.47
2023-03-22T01:26:44.289Z,97541.56
2023-03-22T01:31:45.943Z,97533.28
2023-03-22T01:36:48.129Z,97526.78
2023-03-22T01:41:49.807Z,97522.69
2023-03-22T01:46:52.990Z,97514.44
2023-03-22T01:52:00.576Z,97498.50
2023-03-22T01:57:11.732Z,97505.09
2023-03-22T02:02:19.124Z,97489.22
2023-03-22T02:07:27.820Z,97505.56
2023-03-22T02:12:37.167Z,97513.81
2023-03-22T02:18:01.533Z,97497.81
2023-03-22T02:23:03.022Z,97498.53
2023-03-22T02:28:42.216Z,97497.88
2023-03-22T02:33:52.483Z,97495.94
2023-03-22T02:39:12.517Z,97498.16
2023-03-22T02:44:23.363Z,97488.06
2023-03-22T02:49:49.319Z,97491.06
2023-03-22T02:55:04.199Z,97489.41
2023-03-22T03:00:11.438Z,97489.94
2023-03-22T03:05:14.884Z,97490.00
2023-03-22T03:10:19.042Z,97488.88
2023-03-22T03:15:23.479Z,97490.97
2023-03-22T03:20:57.322Z,97490.66
2023-03-22T03:26:02.305Z,97487.38
2023-03-22T03:31:09.660Z,97494.88
2023-03-22T03:36:18.103Z,97490.09
2023-03-22T03:41:27.116Z,97493.75
2023-03-22T03:46:29.559Z,97503.94
2023-03-22T03:51:33.811Z,97487.31
2023-03-22T03:56:35.398Z,97492.78
2023-03-22T04:01:37.284Z,97481.41
2023-03-22T04:06:46.034Z,97481.78
2023-03-22T04:11:56.249Z,97484.13
2023-03-22T04:16:57.930Z,97486.63
2023-03-22T04:22:01.397Z,97481.28
2023-03-22T04:27:05.471Z,97476.09
2023-03-22T04:32:27.184Z,97482.69
2023-03-22T04:37:33.653Z,97479.09
2023-03-22T04:42:57.369Z,97476.91
2023-03-22T04:48:10.614Z,97477.69
2023-03-22T04:53:12.653Z,97484.44
2023-03-22T04:58:16.145Z,97480.00
2023-03-22T05:03:19.138Z,97477.13
2023-03-22T05:08:22.535Z,97472.19
2023-03-22T05:13:26.972Z,97468.22
2023-03-22T05:18:29.286Z,97469.50
2023-03-22T05:23:32.932Z,97466.16
2023-03-22T05:28:35.731Z,97464.06
2023-03-22T05:33:44.341Z,97459.63
2023-03-22T05:38:48.846Z,97467.66
2023-03-22T05:43:52.429Z,97469.69
2023-03-22T05:48:56.098Z,97469.25
2023-03-22T05:53:57.817Z,97465.97
2023-03-22T05:59:06.944Z,97483.25
2023-03-22T06:04:09.463Z,97464.75
2023-03-22T06:09:40.200Z,97477.72
2023-03-22T06:14:45.366Z,97468.81
2023-03-22T06:19:56.047Z,97464.84
2023-03-22T06:24:58.976Z,97471.16
2023-03-22T06:30:10.293Z,97458.00
2023-03-22T06:35:29.350Z,97468.16
2023-03-22T06:40:31.016Z,97463.31
2023-03-22T06:45:33.436Z,97466.13
2023-03-22T06:50:39.155Z,97458.00
2023-03-22T06:55:46.189Z,97465.88
2023-03-22T07:00:57.509Z,97463.84
2023-03-22T07:06:05.845Z,97450.13
2023-03-22T07:11:09.253Z,97455.88
2023-03-22T07:16:11.977Z,97454.91
2023-03-22T07:21:17.541Z,97447.94
2023-03-22T07:26:25.953Z,97455.50
2023-03-22T07:31:31.415Z,97464.06
2023-03-22T07:36:38.276Z,97461.66
2023-03-22T07:41:43.256Z,97461.59
2023-03-22T07:46:59.970Z,97463.56
2023-03-22T07:52:11.325Z,97453.69
2023-03-22T07:57:12.904Z,97455.63
2023-03-22T08:02:20.574Z,97460.06
2023-03-22T08:07:26.202Z,97455.03
2023-03-22T08:12:28.684Z,97460.91
2023-03-22T08:17:39.744Z,97459.69
2023-03-22T08:22:46.733Z,97458.06
2023-03-22T08:28:06.824Z,97455.59
2023-03-22T08:33:08.888Z,97457.25
2023-03-22T08:38:11.058Z,97456.00
2023-03-22T08:43:20.244Z,97458.03
2023-03-22T08:48:22.049Z,97469.97
2023-03-22T08:53:58.811Z,97476.75
2023-03-22T08:59:26.542Z,97464.53
2023-03-22T09:04:45.515Z,97460.34
2023-03-22T09:09:47.196Z,97462.38
2023-03-22T09:14:49.921Z,97450.50
2023-03-22T09:20:02.684Z,97447.75
2023-03-22T09:25:12.999Z,97441.31
2023-03-22T09:30:17.382Z,97430.25
2023-03-22T09:35:19.379Z,97421.78
2023-03-22T09:40:49.930Z,97418.22
2023-03-22T09:45:52.375Z,97404.16
2023-03-22T09:50:55.287Z,97401.31
2023-03-22T09:56:14.247Z,97392.97
2023-03-22T10:01:29.092Z,97396.00
2023-03-22T10:06:31.655Z,97393.53
2023-03-22T10:11:39.009Z,97385.84
2023-03-22T10:16:41.063Z,97391.94
2023-03-22T10:21:43.616Z,97397.72
2023-03-22T10:26:47.469Z,97383.50
2023-03-22T10:31:49.029Z,97388.28
2023-03-22T10:36:52.668Z,97368.03
2023-03-22T10:41:58.091Z,97356.41
2023-03-22T10:47:07.707Z,97355.44
2023-03-22T10:52:23.972Z,97348.38
2023-03-22T10:57:28.354Z,97355.66
2023-03-22T11:02:32.689Z,97352.63
2023-03-22T11:07:37.437Z,97340.63
2023-03-22T11:12:47.095Z,97335.94
2023-03-22T11:17:49.221Z,97329.97
2023-03-22T11:22:51.250Z,97320.94
2023-03-22T11:27:58.796Z,97303.06
2023-03-22T11:33:21.135Z,97304.69
2023-03-22T11:38:47.372Z,97282.34
2023-03-22T11:43:56.769Z,97268.25
2023-03-22T11:49:04.276Z,97278.59
2023-03-22T11:54:16.597Z,97276.03
2023-03-22T11:59:37.280Z,97273.91
2023-03-22T12:04:41.714Z,97267.59
2023-03-22T12:10:00.073Z,97264.44
2023-03-22T12:15:11.119Z,97254.34
2023-03-22T12:20:32.141Z,97243.91
2023-03-22T12:25:36.090Z,97243.56
2023-03-22T12:30:43.251Z,97245.44
2023-03-22T12:35:46.791Z,97241.53
2023-03-22T12:40:49.600Z,97236.44
2023-03-22T12:45:58.375Z,97232.13
2023-03-22T12:51:04.560Z,97227.06
2023-03-22T12:56:06.627Z,97221.81
2023-03-22T13:01:19.724Z,97220.00
2023-03-22T13:06:46.298Z,97212.38
2023-03-22T13:12:26.931Z,97220.34
2023-03-22T13:17:28.774Z,97209.97
2023-03-22T13:22:36.434Z,97207.13
2023-03-22T13:27:57.171Z,97194.13
2023-03-22T13:33:14.751Z,97191.81
2023-03-22T13:38:22.257Z,97184.41
2023-03-22T13:43:29.050Z,97182.28
2023-03-22T13:48:39.606Z,97167.50
2023-03-22T13:53:47.006Z,97162.59
2023-03-22T13:58:52.824Z,97166.81
2023-03-22T14:03:59.862Z,97170.81
2023-03-22T14:09:13.342Z,97159.03
2023-03-22T14:14:29.872Z,97163.44
2023-03-22T14:19:33.377Z,97156.66
